createdAt,value
2022-09-10T00:01:07.493Z,81.01
2022-09-10T00:03:33.880Z,79.91
2022-09-10T00:06:03.759Z,79.31
2022-09-10T00:08:30.564Z,78.79
2022-09-10T00:11:04.044Z,80.77
2022-09-10T00:13:30.465Z,77.82
2022-09-10T00:15:56.842Z,77.05
2022-09-10T00:18:23.344Z,81.13
2022-09-10T00:20:52.077Z,79.34
2022-09-10T00:23:20.626Z,78.39
2022-09-10T00:25:47.124Z,80.01
2022-09-10T00:28:15.361Z,78.50
2022-09-10T00:30:42.017Z,77.52
2022-09-10T00:33:08.635Z,77.85
2022-09-10T00:35:35.775Z,77.14
2022-09-10T00:38:02.243Z,78.20
2022-09-10T00:40:29.209Z,77.00
2022-09-10T00:42:55.587Z,78.19
2022-09-10T00:45:26.097Z,77.70
2022-09-10T00:47:56.195Z,76.82
2022-09-10T00:50:25.227Z,77.15
2022-09-10T00:52:54.886Z,77.77
2022-09-10T00:55:22.238Z,78.09
2022-09-10T00:57:51.578Z,77.31
2022-09-10T01:00:18.214Z,78.59
2022-09-10T01:02:46.587Z,78.14
2022-09-10T01:05:14.834Z,77.08
2022-09-10T01:07:41.234Z,77.87
2022-09-10T01:10:11.459Z,77.95
2022-09-10T01:13:04.887Z,78.46
2022-09-10T01:15:39.404Z,77.08
2022-09-10T01:18:18.951Z,80.34
2022-09-10T01:21:00.887Z,78.63
2022-09-10T01:23:46.262Z,77.40
2022-09-10T01:26:28.201Z,80.11
2022-09-10T01:28:59.131Z,79.76
2022-09-10T01:31:33.909Z,77.67
2022-09-10T01:34:05.680Z,78.68
2022-09-10T01:36:38.313Z,78.29
2022-09-10T01:39:04.830Z,77.98
2022-09-10T01:41:31.223Z,76.18
2022-09-10T01:44:08.076Z,75.78
2022-09-10T01:46:44.929Z,75.98
2022-09-10T01:49:29.116Z,76.61
2022-09-10T01:52:11.996Z,78.24
2022-09-10T01:54:50.477Z,78.80
2022-09-10T01:57:25.414Z,77.43
2022-09-10T02:00:01.606Z,76.75
2022-09-10T02:02:33.599Z,76.99
2022-09-10T02:05:02.844Z,79.24
2022-09-10T02:07:30.731Z,77.81
2022-09-10T02:09:57.419Z,76.87
2022-09-10T02:12:23.861Z,77.79
2022-09-10T02:14:51.660Z,78.25
2022-09-10T02:17:20.288Z,78.22
2022-09-10T02:19:48.469Z,76.89
2022-09-10T02:22:14.873Z,77.58
2022-09-10T02:24:41.339Z,77.96
2022-09-10T02:27:07.723Z,77.67
2022-09-10T02:29:34.096Z,79.18
2022-09-10T02:32:00.471Z,77.46
2022-09-10T02:34:28.172Z,79.47
2022-09-10T02:36:54.561Z,80.37
2022-09-10T02:39:20.915Z,79.63
2022-09-10T02:41:47.303Z,81.02
2022-09-10T02:44:13.672Z,80.86
2022-09-10T02:46:40.095Z,79.28
2022-09-10T02:49:06.732Z,77.46
2022-09-10T02:51:34.440Z,76.83
2022-09-10T02:54:00.779Z,76.90
2022-09-10T02:56:27.151Z,76.20
2022-09-10T02:58:53.508Z,74.80
2022-09-10T03:01:22.146Z,74.45
2022-09-10T03:03:50.700Z,77.10
2022-09-10T03:06:17.333Z,78.41
2022-09-10T03:08:45.050Z,78.53
2022-09-10T03:11:11.423Z,77.74
2022-09-10T03:13:37.811Z,76.95
2022-09-10T03:16:04.454Z,78.11
2022-09-10T03:18:30.953Z,76.92
2022-09-10T03:21:08.731Z,76.75
2022-09-10T03:23:37.296Z,75.73
2022-09-10T03:26:05.458Z,75.56
2022-09-10T03:28:32.080Z,77.20
2022-09-10T03:30:58.510Z,75.56
2022-09-10T03:33:24.868Z,77.90
2022-09-10T03:35:53.099Z,77.67
2022-09-10T03:38:19.698Z,76.56
2022-09-10T03:40:46.098Z,77.96
2022-09-10T03:43:13.767Z,79.37
2022-09-10T03:45:40.164Z,81.27
2022-09-10T03:48:06.621Z,80.45
2022-09-10T03:50:33.092Z,80.27
2022-09-10T03:52:59.480Z,82.92
2022-09-10T03:55:25.837Z,80.61
2022-09-10T03:57:52.212Z,82.70
2022-09-10T04:00:20.764Z,80.49
2022-09-10T04:02:47.177Z,80.53
2022-09-10T04:05:13.825Z,80.97
2022-09-10T04:07:40.168Z,80.43
2022-09-10T04:10:07.726Z,80.68
2022-09-10T04:12:34.080Z,80.07
2022-09-10T04:15:00.410Z,81.92
2022-09-10T04:17:28.168Z,82.25
2022-09-10T04:19:54.525Z,81.01
2022-09-10T04:22:20.984Z,80.92
2022-09-10T04:24:47.373Z,81.42
2022-09-10T04:27:13.919Z,82.42
2022-09-10T04:29:40.269Z,81.50
2022-09-10T04:32:07.072Z,82.45
2022-09-10T04:34:34.773Z,81.76
2022-09-10T04:37:01.149Z,82.26
2022-09-10T04:39:27.547Z,82.09
2022-09-10T04:41:53.919Z,82.25
2022-09-10T04:44:20.295Z,81.33
2022-09-10T04:46:46.888Z,83.88
2022-09-10T04:49:13.269Z,81.33
2022-09-10T04:51:40.963Z,83.10
2022-09-10T04:54:07.382Z,83.48
2022-09-10T04:56:33.777Z,81.57
2022-09-10T04:59:00.136Z,81.07
2022-09-10T05:01:26.534Z,81.39
2022-09-10T05:03:52.921Z,79.70
2022-09-10T05:06:19.307Z,82.41
2022-09-10T05:08:46.996Z,83.06
2022-09-10T05:11:13.333Z,81.84
2022-09-10T05:13:39.685Z,80.78
2022-09-10T05:16:06.754Z,81.30
2022-09-10T05:18:33.347Z,81.31
2022-09-10T05:20:59.725Z,80.77
2022-09-10T05:23:26.094Z,81.21
2022-09-10T05:25:53.770Z,81.71
2022-09-10T05:28:20.482Z,82.92
2022-09-10T05:30:51.314Z,82.66
2022-09-10T05:33:18.193Z,82.55
2022-09-10T05:35:44.539Z,82.32
2022-09-10T05:38:11.698Z,81.99
2022-09-10T05:40:38.069Z,80.44
2022-09-10T05:43:05.726Z,82.91
2022-09-10T05:45:32.116Z,83.13
2022-09-10T05:47:58.569Z,81.65
2022-09-10T05:50:25.304Z,79.35
2022-09-10T05:52:51.686Z,79.14
2022-09-10T05:55:18.251Z,82.00
2022-09-10T05:57:44.611Z,82.80
2022-09-10T06:00:13.642Z,81.82
2022-09-10T06:02:40.121Z,81.97
2022-09-10T06:05:06.929Z,80.74
2022-09-10T06:07:33.476Z,82.57
2022-09-10T06:09:59.884Z,79.96
2022-09-10T06:12:26.480Z,81.42
2022-09-10T06:14:52.923Z,81.53
2022-09-10T06:17:20.688Z,81.91
2022-09-10T06:19:47.052Z,81.85
2022-09-10T06:22:13.868Z,81.29
2022-09-10T06:24:40.219Z,80.63
2022-09-10T06:27:06.637Z,80.02
2022-09-10T06:29:33.239Z,80.30
2022-09-10T06:31:59.603Z,81.31
2022-09-10T06:34:27.267Z,79.91
2022-09-10T06:36:53.708Z,76.61
2022-09-10T06:39:20.057Z,76.46
2022-09-10T06:41:49.624Z,75.48
2022-09-10T06:44:16.277Z,79.46
2022-09-10T06:49:30.316Z,75.84
2022-09-10T06:51:56.934Z,76.40
2022-09-10T06:54:23.548Z,75.72
2022-09-10T06:56:49.903Z,79.71
2022-09-10T06:59:16.314Z,77.78
2022-09-10T07:01:42.690Z,80.17
2022-09-10T07:04:09.141Z,77.51
2022-09-10T07:06:37.500Z,75.14
2022-09-10T07:09:04.720Z,78.63
2022-09-10T07:11:31.143Z,77.01
2022-09-10T07:13:58.655Z,76.12
2022-09-10T07:16:31.761Z,75.69
2022-09-10T07:18:59.647Z,76.80
2022-09-10T07:21:27.517Z,76.42
2022-09-10T07:23:59.404Z,76.77
2022-09-10T07:26:25.803Z,75.12
2022-09-10T07:28:52.569Z,77.58
2022-09-10T07:31:20.674Z,76.75
2022-09-10T07:33:47.921Z,77.77
2022-09-10T07:36:15.286Z,78.18
2022-09-10T07:38:42.072Z,77.39
2022-09-10T07:41:11.571Z,77.93
2022-09-10T07:43:38.426Z,75.19
2022-09-10T07:46:04.894Z,76.82
2022-09-10T07:48:31.396Z,75.24
2022-09-10T07:51:01.495Z,78.05
2022-09-10T07:53:27.897Z,77.43
2022-09-10T07:55:58.644Z,78.99
2022-09-10T07:58:26.344Z,76.96
2022-09-10T08:00:52.696Z,79.60
2022-09-10T08:03:19.031Z,77.52
2022-09-10T08:05:45.408Z,76.51
2022-09-10T08:08:11.764Z,78.01
2022-09-10T08:10:38.158Z,77.55
2022-09-10T08:13:04.523Z,79.67
2022-09-10T08:15:32.256Z,78.52
2022-09-10T08:17:58.720Z,76.90
2022-09-10T08:20:25.435Z,76.55
2022-09-10T08:22:51.910Z,78.19
2022-09-10T08:25:18.299Z,74.74
2022-09-10T08:27:44.759Z,73.79
2022-09-10T08:30:12.644Z,73.33
2022-09-10T08:32:40.499Z,72.98
2022-09-10T08:35:07.427Z,73.79
2022-09-10T08:37:33.866Z,75.54
2022-09-10T08:40:00.349Z,72.18
2022-09-10T08:42:31.561Z,70.26
2022-09-10T08:45:03.560Z,70.93
2022-09-10T08:47:35.287Z,71.36
2022-09-10T08:50:07.545Z,68.80
2022-09-10T08:52:40.511Z,70.38
2022-09-10T08:55:19.039Z,67.85
2022-09-10T08:57:49.330Z,69.84
2022-09-10T09:00:19.476Z,68.78
2022-09-10T09:02:52.654Z,68.45
2022-09-10T09:05:22.505Z,69.36
2022-09-10T09:07:50.071Z,65.72
2022-09-10T09:10:27.212Z,66.71
2022-09-10T09:13:17.301Z,65.99
2022-09-10T09:15:53.241Z,65.94
2022-09-10T09:18:28.985Z,67.33
2022-09-10T09:21:00.256Z,69.60
2022-09-10T09:23:35.634Z,67.49
2022-09-10T09:26:08.806Z,70.12
2022-09-10T09:28:41.010Z,68.33
2022-09-10T09:31:13.017Z,67.18
2022-09-10T09:33:41.268Z,67.61
2022-09-10T09:36:16.725Z,66.64
2022-09-10T09:38:45.596Z,67.53
2022-09-10T09:41:21.192Z,66.89
2022-09-10T09:43:54.768Z,65.28
2022-09-10T09:46:22.046Z,62.44
2022-09-10T09:48:49.571Z,63.18
2022-09-10T09:51:18.587Z,62.51
2022-09-10T09:53:48.219Z,66.80
2022-09-10T09:56:21.552Z,62.38
2022-09-10T09:58:49.067Z,65.25
2022-09-10T10:01:18.508Z,62.84
2022-09-10T10:03:48.314Z,65.70
2022-09-10T10:06:17.154Z,62.78
2022-09-10T10:08:45.727Z,63.97
2022-09-10T10:11:15.816Z,62.16
2022-09-10T10:13:43.651Z,62.59
2022-09-10T10:16:17.671Z,61.71
2022-09-10T10:18:44.608Z,60.96
2022-09-10T10:21:14.336Z,58.67
2022-09-10T10:23:42.174Z,58.72
2022-09-10T10:26:29.495Z,57.91
2022-09-10T10:28:59.110Z,58.19
2022-09-10T10:31:36.733Z,58.72
2022-09-10T10:34:22.567Z,58.71
2022-09-10T10:36:59.209Z,57.96
2022-09-10T10:39:45.830Z,58.26
2022-09-10T10:42:17.882Z,57.52
2022-09-10T10:45:00.082Z,56.88
2022-09-10T10:47:36.850Z,56.96
2022-09-10T10:50:16.241Z,56.30
2022-09-10T10:52:48.726Z,58.11
2022-09-10T10:55:22.354Z,56.62
2022-09-10T10:58:04.231Z,57.10
2022-09-10T11:00:38.066Z,54.77
2022-09-10T11:03:14.769Z,55.27
2022-09-10T11:05:45.637Z,54.40
2022-09-10T11:08:15.962Z,57.01
2022-09-10T11:10:49.169Z,56.95
2022-09-10T11:13:22.571Z,56.18
2022-09-10T11:15:52.219Z,56.44
2022-09-10T11:18:23.880Z,55.50
2022-09-10T11:20:59.508Z,54.77
2022-09-10T11:23:30.294Z,56.21
2022-09-10T11:26:03.499Z,56.75
2022-09-10T11:28:34.115Z,56.46
2022-09-10T11:31:06.249Z,54.22
2022-09-10T11:33:39.559Z,55.58
2022-09-10T11:36:11.558Z,54.00
2022-09-10T11:38:47.039Z,51.20
2022-09-10T11:41:18.816Z,53.86
2022-09-10T11:43:50.091Z,55.15
2022-09-10T11:46:21.144Z,52.21
2022-09-10T11:48:51.936Z,53.13
2022-09-10T11:51:23.924Z,54.49
2022-09-10T11:53:50.761Z,53.73
2022-09-10T11:56:50.396Z,53.67
2022-09-10T11:59:31.797Z,54.01
2022-09-10T12:02:17.429Z,52.96
2022-09-10T12:04:54.699Z,55.53
2022-09-10T12:07:38.388Z,53.90
2022-09-10T12:10:14.309Z,55.63
2022-09-10T12:12:44.576Z,52.69
2022-09-10T12:15:19.267Z,52.81
2022-09-10T12:17:49.532Z,53.85
2022-09-10T12:20:19.675Z,54.39
2022-09-10T12:22:50.430Z,56.65
2022-09-10T12:25:30.464Z,55.18
2022-09-10T12:28:03.785Z,53.73
2022-09-10T12:30:59.796Z,55.18
2022-09-10T12:34:04.991Z,54.54
2022-09-10T12:37:16.989Z,56.23
2022-09-10T12:39:43.464Z,56.35
2022-09-10T12:42:33.745Z,55.38
2022-09-10T12:45:01.529Z,54.17
2022-09-10T12:47:46.051Z,56.84
2022-09-10T12:50:33.292Z,56.80
2022-09-10T12:53:16.597Z,55.15
2022-09-10T12:55:55.030Z,56.79
2022-09-10T12:58:32.800Z,54.47
2022-09-10T13:01:12.613Z,53.62
2022-09-10T13:03:50.757Z,56.74
2022-09-10T13:06:17.171Z,55.78
2022-09-10T13:08:46.179Z,53.54
2022-09-10T13:11:18.477Z,54.20
2022-09-10T13:13:51.216Z,52.38
2022-09-10T13:16:21.806Z,53.43
2022-09-10T13:18:48.580Z,53.15
2022-09-10T13:21:51.578Z,53.53
2022-09-10T13:24:58.128Z,52.43
2022-09-10T13:27:37.153Z,53.10
2022-09-10T13:30:14.402Z,52.75
2022-09-10T13:32:49.144Z,52.79
2022-09-10T13:35:32.076Z,51.49
2022-09-10T13:38:18.387Z,52.98
2022-09-10T13:41:01.326Z,52.09
2022-09-10T13:43:41.616Z,50.75
2022-09-10T13:46:12.207Z,51.10
2022-09-10T13:48:46.061Z,49.09
2022-09-10T13:51:20.882Z,48.83
2022-09-10T13:53:48.284Z,50.11
2022-09-10T13:56:19.563Z,50.56
2022-09-10T13:58:50.099Z,53.11
2022-09-10T14:01:17.068Z,52.01
2022-09-10T14:03:44.831Z,53.91
2022-09-10T14:06:15.681Z,52.02
2022-09-10T14:08:46.315Z,53.39
2022-09-10T14:11:18.400Z,53.51
2022-09-10T14:13:49.736Z,54.26
2022-09-10T14:16:20.642Z,52.53
2022-09-10T14:18:52.554Z,52.27
2022-09-10T14:21:20.434Z,53.17
2022-09-10T14:23:48.885Z,51.69
2022-09-10T14:26:18.142Z,52.21
2022-09-10T14:28:52.897Z,54.42
2022-09-10T14:31:28.096Z,54.86
2022-09-10T14:33:56.508Z,55.02
2022-09-10T14:36:32.891Z,52.97
2022-09-10T14:39:03.152Z,53.47
2022-09-10T14:41:31.999Z,52.17
2022-09-10T14:44:24.832Z,54.55
2022-09-10T14:46:52.643Z,52.16
2022-09-10T14:49:25.736Z,52.58
2022-09-10T14:51:52.153Z,51.26
2022-09-10T14:54:18.596Z,50.70
2022-09-10T14:56:47.370Z,52.29
2022-09-10T14:59:15.864Z,51.89
2022-09-10T15:01:43.602Z,51.74
2022-09-10T15:04:13.165Z,53.93
2022-09-10T15:06:41.324Z,53.66
2022-09-10T15:09:07.676Z,53.44
2022-09-10T15:11:35.613Z,53.13
2022-09-10T15:14:02.030Z,53.89
2022-09-10T15:16:28.572Z,52.49
2022-09-10T15:18:54.948Z,52.31
2022-09-10T15:21:21.405Z,52.34
2022-09-10T15:23:49.073Z,52.55
2022-09-10T15:26:15.798Z,52.67
2022-09-10T15:28:42.371Z,53.94
2022-09-10T15:31:09.108Z,52.37
2022-09-10T15:33:35.559Z,53.17
2022-09-10T15:36:02.600Z,52.42
2022-09-10T15:38:28.962Z,53.80
2022-09-10T15:41:07.444Z,52.67
2022-09-10T15:43:36.814Z,52.72
2022-09-10T15:46:03.348Z,52.13
2022-09-10T15:48:30.417Z,52.79
2022-09-10T15:51:00.365Z,54.00
2022-09-10T15:53:26.729Z,52.82
2022-09-10T15:55:53.080Z,53.63
2022-09-10T15:58:20.846Z,52.75
2022-09-10T16:00:47.224Z,52.83
2022-09-10T16:03:16.525Z,53.28
2022-09-10T16:05:42.863Z,52.46
2022-09-10T16:08:09.187Z,51.75
2022-09-10T16:10:38.431Z,51.29
2022-09-10T16:13:04.793Z,51.55
2022-09-10T16:15:32.465Z,51.74
2022-09-10T16:17:58.803Z,52.37
2022-09-10T16:20:25.300Z,51.59
2022-09-10T16:22:51.703Z,52.15
2022-09-10T16:25:18.042Z,52.00
2022-09-10T16:27:44.392Z,53.71
2022-09-10T16:30:11.981Z,52.45
2022-09-10T16:32:39.679Z,51.33
2022-09-10T16:35:06.511Z,51.85
2022-09-10T16:37:32.861Z,52.78
2022-09-10T16:39:59.258Z,50.92
2022-09-10T16:42:25.679Z,51.34
2022-09-10T16:44:52.071Z,52.11
2022-09-10T16:47:18.428Z,52.16
2022-09-10T16:49:46.087Z,55.71
2022-09-10T16:52:12.431Z,55.37
2022-09-10T16:54:38.822Z,53.74
2022-09-10T16:57:06.171Z,53.59
2022-09-10T16:59:32.521Z,54.87
2022-09-10T17:01:58.904Z,54.56
2022-09-10T17:04:28.828Z,53.42
2022-09-10T17:06:57.287Z,53.94
2022-09-10T17:09:23.838Z,53.15
2022-09-10T17:11:50.195Z,53.49
2022-09-10T17:14:16.546Z,54.42
2022-09-10T17:16:43.052Z,53.90
2022-09-10T17:19:11.628Z,53.28
2022-09-10T17:21:39.435Z,53.28
2022-09-10T17:24:10.274Z,55.57
2022-09-10T17:26:37.838Z,55.41
2022-09-10T17:29:06.170Z,54.90
2022-09-10T17:31:32.574Z,54.91
2022-09-10T17:33:59.408Z,57.85
2022-09-10T17:36:26.767Z,57.37
2022-09-10T17:38:54.256Z,55.27
2022-09-10T17:41:23.303Z,55.45
2022-09-10T17:43:50.093Z,57.33
2022-09-10T17:46:18.392Z,55.47
2022-09-10T17:48:45.035Z,56.46
2022-09-10T17:51:12.323Z,56.19
2022-09-10T17:53:38.646Z,57.26
2022-09-10T17:56:06.958Z,56.26
2022-09-10T17:58:34.971Z,55.93
2022-09-10T18:01:03.730Z,56.86
2022-09-10T18:03:30.583Z,56.70
2022-09-10T18:05:56.992Z,56.69
2022-09-10T18:08:23.339Z,57.84
2022-09-10T18:10:49.710Z,57.55
2022-09-10T18:13:16.068Z,56.11
2022-09-10T18:15:43.782Z,56.06
2022-09-10T18:18:10.174Z,57.42
2022-09-10T18:20:36.509Z,58.98
2022-09-10T18:23:02.862Z,59.36
2022-09-10T18:25:29.934Z,58.70
2022-09-10T18:28:14.627Z,58.57
2022-09-10T18:30:41.556Z,58.89
2022-09-10T18:33:09.232Z,56.95
2022-09-10T18:35:35.765Z,58.78
2022-09-10T18:38:02.147Z,57.90
2022-09-10T18:40:28.510Z,59.63
2022-09-10T18:42:54.858Z,61.04
2022-09-10T18:45:21.615Z,60.66
2022-09-10T18:47:47.994Z,61.13
2022-09-10T18:50:15.766Z,60.27
2022-09-10T18:52:42.130Z,58.78
2022-09-10T18:55:09.116Z,60.33
2022-09-10T18:57:35.486Z,59.90
2022-09-10T19:00:02.321Z,60.46
2022-09-10T19:02:28.821Z,59.78
2022-09-10T19:05:10.706Z,60.62
2022-09-10T19:07:39.200Z,60.17
2022-09-10T19:10:06.701Z,58.33
2022-09-10T19:12:33.048Z,59.66
2022-09-10T19:14:59.402Z,58.77
2022-09-10T19:17:25.737Z,59.17
2022-09-10T19:19:52.156Z,59.96
2022-09-10T19:22:18.707Z,59.67
2022-09-10T19:24:55.264Z,60.18
2022-09-10T19:27:22.766Z,60.64
2022-09-10T19:29:49.324Z,63.13
2022-09-10T19:32:15.806Z,64.40
2022-09-10T19:34:42.321Z,63.57
2022-09-10T19:37:08.707Z,63.07
2022-09-10T19:39:35.147Z,61.83
2022-09-10T19:42:02.944Z,62.16
2022-09-10T19:44:29.298Z,62.45
2022-09-10T19:46:55.623Z,61.54
2022-09-10T19:49:22.124Z,62.22
2022-09-10T19:51:48.619Z,62.19
2022-09-10T19:54:15.052Z,62.67
2022-09-10T19:56:42.116Z,61.96
2022-09-10T19:59:10.288Z,61.21
2022-09-10T20:01:38.659Z,61.26
2022-09-10T20:04:07.691Z,59.89
2022-09-10T20:06:34.700Z,60.63
2022-09-10T20:09:02.019Z,60.41
2022-09-10T20:11:30.688Z,62.00
2022-09-10T20:13:58.710Z,61.17
2022-09-10T20:16:27.135Z,61.59
2022-09-10T20:18:53.765Z,62.47
2022-09-10T20:21:22.595Z,63.08
2022-09-10T20:23:50.812Z,63.36
2022-09-10T20:26:19.505Z,63.33
2022-09-10T20:28:50.363Z,63.30
2022-09-10T20:31:16.794Z,63.45
2022-09-10T20:33:44.507Z,63.71
2022-09-10T20:36:13.221Z,64.60
2022-09-10T20:38:39.617Z,64.65
2022-09-10T20:41:06.745Z,65.67
2022-09-10T20:43:33.753Z,65.36
2022-09-10T20:46:00.213Z,66.01
2022-09-10T20:48:27.547Z,66.69
2022-09-10T20:50:56.690Z,66.66
2022-09-10T20:53:23.224Z,67.49
2022-09-10T20:55:50.190Z,67.19
2022-09-10T20:58:16.940Z,68.23
2022-09-10T21:00:43.868Z,68.25
2022-09-10T21:03:10.228Z,68.04
2022-09-10T21:05:36.656Z,67.28
2022-09-10T21:08:05.401Z,67.60
2022-09-10T21:10:35.133Z,68.05
2022-09-10T21:13:01.509Z,66.87
2022-09-10T21:15:27.907Z,67.74
2022-09-10T21:17:54.256Z,67.64
2022-09-10T21:20:21.004Z,68.40
2022-09-10T21:22:47.360Z,70.07
2022-09-10T21:25:15.114Z,69.08
2022-09-10T21:27:41.462Z,68.13
2022-09-10T21:30:08.911Z,69.03
2022-09-10T21:32:35.244Z,68.67
2022-09-10T21:35:01.636Z,68.06
2022-09-10T21:37:27.954Z,68.69
2022-09-10T21:39:54.329Z,69.11
2022-09-10T21:42:22.038Z,70.23
2022-09-10T21:44:48.412Z,70.72
2022-09-10T21:47:14.735Z,71.32
2022-09-10T21:49:41.100Z,70.20
2022-09-10T21:52:07.602Z,70.05
2022-09-10T21:54:33.958Z,69.63
2022-09-10T21:57:00.300Z,70.19
2022-09-10T21:59:27.982Z,69.71
2022-09-10T22:01:54.451Z,71.46
2022-09-10T22:04:23.025Z,71.29
2022-09-10T22:06:49.713Z,70.56
2022-09-10T22:09:16.587Z,70.68
2022-09-10T22:11:45.299Z,69.73
2022-09-10T22:14:13.750Z,69.71
2022-09-10T22:16:41.976Z,72.82
2022-09-10T22:19:12.345Z,72.73
2022-09-10T22:21:38.731Z,71.53
2022-09-10T22:24:05.886Z,71.49
2022-09-10T22:26:32.564Z,71.23
2022-09-10T22:28:59.870Z,71.01
2022-09-10T22:31:28.200Z,70.41
2022-09-10T22:33:57.567Z,71.54
2022-09-10T22:36:26.376Z,71.14
2022-09-10T22:38:54.174Z,72.92
2022-09-10T22:41:20.931Z,72.70
2022-09-10T22:43:47.273Z,72.02
2022-09-10T22:46:13.845Z,73.44
2022-09-10T22:48:41.695Z,72.81
2022-09-10T22:51:11.537Z,74.49
2022-09-10T22:53:39.424Z,73.66
2022-09-10T22:56:06.690Z,72.57
2022-09-10T22:58:33.708Z,72.62
2022-09-10T23:01:03.598Z,72.68
2022-09-10T23:03:29.991Z,75.09
2022-09-10T23:06:02.269Z,74.35
2022-09-10T23:08:29.935Z,76.13
2022-09-10T23:10:56.300Z,74.10
2022-09-10T23:13:22.656Z,74.05
2022-09-10T23:15:49.068Z,75.56
2022-09-10T23:18:15.461Z,74.27
2022-09-10T23:20:41.801Z,74.78
2022-09-10T23:23:08.161Z,73.95
2022-09-10T23:25:35.847Z,74.41
2022-09-10T23:28:06.717Z,73.25
2022-09-10T23:30:33.621Z,74.02
2022-09-10T23:32:59.988Z,74.75
2022-09-10T23:35:26.536Z,73.69
2022-09-10T23:37:52.891Z,74.40
2022-09-10T23:40:22.117Z,74.32
2022-09-10T23:42:54.058Z,73.73
2022-09-10T23:45:20.768Z,73.52
2022-09-10T23:47:47.098Z,74.15
2022-09-10T23:50:13.627Z,74.18
2022-09-10T23:52:39.959Z,73.80
2022-09-10T23:55:07.057Z,76.42
2022-09-10T23:57:33.411Z,75.79
